Time;durP1;ratioP1;P1;durP2;ratioP2;P2;SDS_P1;SDS_P2;PMS_P1;PMS_P2;Temp;Humidity;BMP_temperature;BMP_pressure;BME280_temperature;BME280_humidity;BME280_pressure;Samples;Min_cycle;Max_cycle;Signal;HPM_P1;HPM_P2
2022/09/06 00:00:54;;;;;;;7.83;7.33;;;;;;;21.05;58.61;100899.44;5054375;28;20205;-80
2022/09/06 00:03:20;;;;;;;7.93;7.40;;;;;;;21.03;58.93;100909.28;5054600;28;20209;-81
2022/09/06 00:05:47;;;;;;;8.63;7.83;;;;;;;20.99;59.11;100900.63;5054309;28;20255;-80
2022/09/06 00:08:14;;;;;;;8.80;8.10;;;;;;;21.03;59.12;100891.56;5054019;28;20571;-80
2022/09/06 00:10:42;;;;;;;8.27;7.77;;;;;;;20.98;59.05;100879.47;5054303;28;20214;-81
2022/09/06 00:13:10;;;;;;;8.27;7.77;;;;;;;20.98;59.18;100887.44;5054404;28;20209;-80
2022/09/06 00:15:37;;;;;;;8.40;7.80;;;;;;;20.91;59.43;100889.56;5053405;28;20806;-80
2022/09/06 00:18:06;;;;;;;8.77;8.07;;;;;;;20.92;59.38;100885.97;5054217;28;20238;-80
2022/09/06 00:20:34;;;;;;;8.43;7.93;;;;;;;20.90;59.68;100884.34;5053852;28;20202;-80
2022/09/06 00:23:03;;;;;;;8.57;7.97;;;;;;;20.89;59.66;100896.78;5054153;28;20202;-80
2022/09/06 00:25:30;;;;;;;8.00;7.40;;;;;;;20.83;59.93;100886.47;5053245;28;20221;-80
2022/09/06 00:28:00;;;;;;;8.47;7.87;;;;;;;20.88;59.76;100888.88;5045850;28;20229;-80
2022/09/06 00:30:28;;;;;;;7.77;7.17;;;;;;;20.86;59.67;100890.78;5053842;28;20209;-81
2022/09/06 00:32:55;;;;;;;8.80;8.13;;;;;;;20.87;59.88;100895.13;5053611;28;20209;-80
2022/09/06 00:35:24;;;;;;;7.53;7.13;;;;;;;20.86;59.78;100877.50;5053617;28;20275;-80
2022/09/06 00:37:51;;;;;;;8.17;7.67;;;;;;;20.88;59.62;100880.94;5053966;28;20210;-81
2022/09/06 00:40:17;;;;;;;7.50;7.00;;;;;;;20.87;59.58;100889.81;5053485;28;20233;-81
2022/09/06 00:42:44;;;;;;;8.07;7.57;;;;;;;20.87;59.48;100890.69;5053853;28;20263;-81
2022/09/06 00:45:12;;;;;;;8.10;7.60;;;;;;;20.79;59.91;100895.53;5053275;28;20225;-82
2022/09/06 00:47:41;;;;;;;8.53;8.03;;;;;;;20.72;60.23;100884.41;5053435;28;20209;-80
2022/09/06 00:50:09;;;;;;;8.23;7.63;;;;;;;20.69;60.28;100887.22;5053415;28;20206;-81
2022/09/06 00:52:37;;;;;;;9.37;8.57;;;;;;;20.67;60.61;100877.63;5053264;28;20205;-82
2022/09/06 00:55:04;;;;;;;8.70;8.20;;;;;;;20.65;60.41;100875.06;5053075;28;20646;-80
2022/09/06 00:57:31;;;;;;;8.47;7.83;;;;;;;20.68;60.38;100882.88;5044967;28;20206;-81
2022/09/06 00:59:59;;;;;;;8.80;8.20;;;;;;;20.64;60.71;100876.00;5052510;28;20225;-80
2022/09/06 01:02:27;;;;;;;8.30;7.80;;;;;;;20.66;60.46;100884.75;5053291;28;20267;-81
2022/09/06 01:04:54;;;;;;;8.20;7.60;;;;;;;20.65;60.58;100874.22;5052796;28;20573;-80
2022/09/06 01:07:34;;;;;;;8.80;8.20;;;;;;;20.73;60.47;100880.84;5052919;28;20216;-81
2022/09/06 01:10:16;;;;;;;8.37;7.80;;;;;;;20.70;60.62;100883.63;5052945;28;20201;-81
2022/09/06 01:12:50;;;;;;;7.93;7.33;;;;;;;20.71;60.59;100881.84;5052859;28;20197;-81
2022/09/06 01:15:27;;;;;;;8.93;8.23;;;;;;;20.65;61.00;100869.75;5052241;28;20225;-81
2022/09/06 01:18:01;;;;;;;8.53;7.93;;;;;;;20.60;61.13;100869.16;5052713;28;20217;-81
2022/09/06 01:20:45;;;;;;;8.23;7.73;;;;;;;20.60;61.70;100854.09;5052280;28;20320;-81
2022/09/06 01:23:40;;;;;;;7.87;7.37;;;;;;;20.55;61.70;100831.38;5052507;28;20247;-80
2022/09/06 01:26:25;;;;;;;7.60;7.10;;;;;;;20.55;63.68;100797.75;5052163;28;20221;-80
2022/09/06 01:28:54;;;;;;;8.43;7.83;;;;;;;20.56;63.27;100745.56;5044982;28;20205;-81
2022/09/06 01:31:30;;;;;;;9.43;8.87;;;;;;;20.53;63.83;100706.78;5052702;28;20209;-80
2022/09/06 01:34:15;;;;;;;9.03;8.40;;;;;;;20.45;65.75;100656.00;5052430;28;20225;-82
2022/09/06 01:36:47;;;;;;;9.53;8.93;;;;;;;20.34;66.44;100606.25;5052240;28;20197;-80
2022/09/06 01:39:23;;;;;;;8.40;7.80;;;;;;;20.29;66.56;100608.28;5052158;28;20770;-81
2022/09/06 01:41:51;;;;;;;9.73;9.03;;;;;;;20.21;67.44;100579.56;5053048;28;20213;-81
2022/09/06 01:44:19;;;;;;;9.30;8.70;;;;;;;20.21;68.15;100560.16;5052601;28;20580;-81
2022/09/06 01:46:53;;;;;;;9.17;8.57;;;;;;;20.15;68.51;100548.09;5052637;28;20628;-82
2022/09/06 01:49:33;;;;;;;10.20;9.60;;;;;;;20.09;69.41;100534.34;5052790;28;20209;-80
2022/09/06 01:52:09;;;;;;;9.47;8.77;;;;;;;20.01;69.17;100538.28;5052552;28;20608;-80
2022/09/06 01:54:55;;;;;;;9.60;9.00;;;;;;;19.90;69.79;100532.75;5052671;28;20281;-80
2022/09/06 01:57:35;;;;;;;10.00;9.20;;;;;;;19.84;69.60;100525.13;5040645;28;20230;-81
2022/09/06 02:00:07;;;;;;;10.00;9.30;;;;;;;19.76;69.70;100538.84;5032393;28;20698;-81
2022/09/06 02:02:48;;;;;;;9.50;9.00;;;;;;;19.65;70.07;100533.25;5032530;28;20202;-80
2022/09/06 02:05:22;;;;;;;10.73;9.87;;;;;;;19.62;70.51;100550.16;5032117;28;20757;-79
2022/09/06 02:07:53;;;;;;;10.07;9.47;;;;;;;19.58;70.24;100543.31;5032268;28;20862;-81
2022/09/06 02:10:23;;;;;;;10.00;9.30;;;;;;;19.57;70.23;100552.19;5033989;28;20206;-81
2022/09/06 02:12:55;;;;;;;9.97;9.30;;;;;;;19.54;69.96;100557.66;5036302;28;20210;-82
2022/09/06 02:15:25;;;;;;;9.73;8.97;;;;;;;19.53;69.83;100565.69;5035895;28;20637;-81
2022/09/06 02:17:57;;;;;;;9.67;9.07;;;;;;;19.48;70.58;100549.19;5036475;28;20268;-81
2022/09/06 02:20:29;;;;;;;9.67;8.97;;;;;;;19.46;70.12;100567.78;5036203;28;20225;-81
2022/09/06 02:22:59;;;;;;;9.77;9.07;;;;;;;19.43;69.96;100581.22;5036202;28;20229;-81
2022/09/06 02:25:31;;;;;;;9.77;9.17;;;;;;;19.30;70.21;100583.66;5040672;28;20245;-81
2022/09/06 02:27:58;;;;;;;9.63;9.03;;;;;;;19.29;69.90;100594.34;5047678;28;20209;-82
2022/09/06 02:30:25;;;;;;;9.10;8.40;;;;;;;19.28;70.17;100589.97;5056208;28;20231;-81
2022/09/06 02:32:57;;;;;;;9.10;8.50;;;;;;;19.37;69.68;100605.38;5055697;28;20232;-82
2022/09/06 02:35:23;;;;;;;9.37;8.63;;;;;;;19.41;69.41;100621.00;5055507;28;20718;-81
2022/09/06 02:37:50;;;;;;;9.77;8.87;;;;;;;19.43;68.90;100627.06;5056119;28;20201;-81
2022/09/06 02:40:17;;;;;;;9.57;8.87;;;;;;;19.43;68.88;100621.78;5055672;28;20730;-81
2022/09/06 02:42:43;;;;;;;9.30;8.63;;;;;;;19.45;69.33;100616.41;5055162;28;20666;-82
2022/09/06 02:45:10;;;;;;;9.87;9.27;;;;;;;19.45;69.18;100622.56;5055129;28;20768;-81
2022/09/06 02:47:38;;;;;;;8.87;8.37;;;;;;;19.44;69.20;100620.84;5055486;28;20212;-81
2022/09/06 02:50:06;;;;;;;9.20;8.60;;;;;;;19.40;69.29;100624.56;5055329;28;20658;-80
2022/09/06 02:52:33;;;;;;;10.33;9.63;;;;;;;19.36;69.27;100614.25;5055456;28;20205;-81
2022/09/06 02:54:59;;;;;;;8.93;8.23;;;;;;;19.33;69.47;100609.13;5055137;28;20283;-82
2022/09/06 02:57:26;;;;;;;9.63;9.00;;;;;;;19.30;69.36;100626.00;5046668;28;20202;-82
2022/09/06 02:59:52;;;;;;;8.70;8.10;;;;;;;19.25;69.50;100638.63;5055188;28;20267;-81
2022/09/06 03:02:19;;;;;;;9.03;8.50;;;;;;;19.23;69.25;100649.28;5055415;28;20209;-81
2022/09/06 03:04:46;;;;;;;8.87;8.17;;;;;;;19.23;68.71;100645.81;5055081;28;20229;-81
2022/09/06 03:07:13;;;;;;;7.87;7.37;;;;;;;19.25;68.48;100673.88;5055217;28;20205;-80
2022/09/06 03:09:40;;;;;;;8.60;8.00;;;;;;;19.28;67.43;100703.78;5054989;28;20675;-81
2022/09/06 03:12:07;;;;;;;8.70;8.20;;;;;;;19.25;67.59;100710.09;5054415;28;20229;-82
2022/09/06 03:14:34;;;;;;;7.27;6.80;;;;;;;19.24;66.99;100725.09;5054019;28;20236;-81
2022/09/06 03:17:01;;;;;;;10.03;9.03;;;;;;;19.21;67.07;100735.00;5056300;28;20201;-81
2022/09/06 03:19:28;;;;;;;8.00;7.40;;;;;;;19.13;66.93;100732.75;5054869;28;20229;-82
2022/09/06 03:21:55;;;;;;;8.67;8.10;;;;;;;19.12;67.10;100732.81;5054112;28;20213;-81
2022/09/06 03:24:22;;;;;;;7.93;7.53;;;;;;;19.13;67.00;100727.44;5054965;28;20225;-81
2022/09/06 03:26:48;;;;;;;8.33;7.80;;;;;;;19.11;66.82;100736.38;5050233;28;20218;-81
2022/09/06 03:29:14;;;;;;;7.37;6.97;;;;;;;19.08;66.56;100725.97;5050507;28;20546;-80
2022/09/06 03:31:41;;;;;;;7.87;7.30;;;;;;;19.00;66.45;100724.53;5054573;28;20204;-81
2022/09/06 03:34:08;;;;;;;7.57;7.17;;;;;;;18.95;66.63;100729.22;5054382;28;20225;-81
2022/09/06 03:36:34;;;;;;;8.10;7.50;;;;;;;18.91;66.35;100724.13;5054132;28;20329;-80
2022/09/06 03:39:02;;;;;;;7.87;7.10;;;;;;;18.84;66.18;100729.72;5054987;28;20263;-80
2022/09/06 03:41:28;;;;;;;7.23;6.73;;;;;;;18.83;65.95;100741.25;5053992;28;20291;-80
2022/09/06 03:43:55;;;;;;;7.13;6.63;;;;;;;18.79;65.56;100750.28;5054461;28;20225;-81
2022/09/06 03:46:21;;;;;;;7.50;7.03;;;;;;;18.78;65.67;100766.16;5054268;28;20210;-81
2022/09/06 03:48:48;;;;;;;7.57;6.97;;;;;;;18.73;65.53;100784.03;5054169;28;20206;-81
2022/09/06 03:51:15;;;;;;;8.33;7.50;;;;;;;18.69;65.50;100790.41;5054340;28;20217;-80
2022/09/06 03:53:41;;;;;;;7.33;6.73;;;;;;;18.69;64.92;100795.69;5053978;28;20256;-80
2022/09/06 03:56:09;;;;;;;7.37;6.97;;;;;;;18.68;64.93;100805.41;5053171;28;20733;-80
2022/09/06 03:58:35;;;;;;;6.67;6.27;;;;;;;18.65;64.79;100816.13;5046399;28;20201;-80
2022/09/06 04:01:04;;;;;;;8.43;6.43;;;;;;;18.63;64.68;100810.06;5054315;28;20638;-81
2022/09/06 04:03:31;;;;;;;7.23;6.73;;;;;;;18.61;64.78;100819.84;5054332;28;20316;-80
2022/09/06 04:05:57;;;;;;;7.53;6.63;;;;;;;18.56;64.77;100820.06;5053712;28;20228;-83
2022/09/06 04:08:24;;;;;;;7.10;6.70;;;;;;;18.55;64.49;100821.00;5054173;28;20205;-81
2022/09/06 04:10:50;;;;;;;7.50;6.97;;;;;;;18.56;64.10;100812.13;5054092;28;20264;-81
2022/09/06 04:13:18;;;;;;;7.30;6.70;;;;;;;18.53;64.20;100814.06;5053699;28;20290;-81
2022/09/06 04:15:46;;;;;;;6.97;6.37;;;;;;;18.51;64.57;100808.84;5054748;28;20236;-81
2022/09/06 04:18:12;;;;;;;6.57;6.17;;;;;;;18.46;64.38;100811.69;5063909;28;20216;-81
2022/09/06 04:20:39;;;;;;;5.67;5.37;;;;;;;18.44;64.50;100805.63;5064246;28;20222;-83
2022/09/06 04:23:05;;;;;;;6.40;6.03;;;;;;;18.44;64.38;100805.63;5062322;28;20678;-82
2022/09/06 04:25:32;;;;;;;6.97;6.47;;;;;;;18.45;64.21;100804.72;5055189;28;20267;-80
2022/09/06 04:27:58;;;;;;;7.33;6.80;;;;;;;18.42;64.40;100807.47;5073339;22;20674;-76
2022/09/06 04:30:26;;;;;;;6.50;6.10;;;;;;;18.41;64.45;100796.97;5072561;28;20205;-77
2022/09/06 04:32:52;;;;;;;7.17;6.67;;;;;;;18.39;64.45;100801.47;5052471;28;20234;-77
2022/09/06 04:35:19;;;;;;;6.80;6.30;;;;;;;18.39;64.32;100801.47;5052176;28;20201;-76
2022/09/06 04:37:45;;;;;;;6.90;6.40;;;;;;;18.33;64.53;100799.09;5057605;28;20229;-77
2022/09/06 04:40:12;;;;;;;7.47;6.97;;;;;;;18.31;64.57;100787.75;5072550;28;20228;-77
2022/09/06 04:42:38;;;;;;;7.33;6.83;;;;;;;18.32;64.52;100798.25;5072643;28;20293;-77
2022/09/06 04:45:06;;;;;;;6.97;6.57;;;;;;;18.22;64.64;100787.25;5072503;28;20197;-77
2022/09/06 04:47:34;;;;;;;7.13;6.63;;;;;;;18.26;64.29;100791.47;5072730;28;20225;-77
2022/09/06 04:50:00;;;;;;;6.73;6.23;;;;;;;18.29;64.14;100801.03;5072678;28;20204;-77
2022/09/06 04:52:26;;;;;;;6.73;6.33;;;;;;;18.29;64.21;100811.59;5072422;28;20663;-77
2022/09/06 04:54:53;;;;;;;6.67;6.27;;;;;;;18.23;64.26;100804.81;5072096;28;20753;-77
2022/09/06 04:57:19;;;;;;;6.30;5.90;;;;;;;18.24;64.24;100814.47;5072617;28;20617;-77
2022/09/06 04:59:45;;;;;;;6.70;6.20;;;;;;;18.26;64.22;100807.31;5088157;28;20209;-78
2022/09/06 05:02:12;;;;;;;6.60;6.10;;;;;;;18.29;63.93;100808.09;5087674;28;20242;-78
2022/09/06 05:04:39;;;;;;;8.70;6.37;;;;;;;18.30;63.83;100817.78;5092714;28;20212;-78
2022/09/06 05:07:08;;;;;;;6.77;6.20;;;;;;;18.24;63.94;100818.91;5092453;28;20262;-78
2022/09/06 05:09:35;;;;;;;6.53;6.03;;;;;;;18.23;64.08;100817.16;5092594;28;20216;-78
2022/09/06 05:12:02;;;;;;;6.60;6.20;;;;;;;18.24;63.97;100809.19;5092734;28;20208;-78
2022/09/06 05:14:29;;;;;;;6.70;6.30;;;;;;;18.28;64.03;100823.13;5091833;28;20628;-78
2022/09/06 05:16:56;;;;;;;6.50;6.00;;;;;;;18.28;63.93;100822.25;5092675;28;20303;-77
2022/09/06 05:19:22;;;;;;;7.37;6.70;;;;;;;18.29;63.91;100813.41;5092470;28;20224;-77
2022/09/06 05:21:50;;;;;;;5.90;5.50;;;;;;;18.24;64.17;100818.91;5092165;28;20224;-78
2022/09/06 05:24:16;;;;;;;6.53;6.10;;;;;;;18.21;64.20;100808.44;5092682;28;20257;-78
2022/09/06 05:26:43;;;;;;;6.33;5.93;;;;;;;18.24;63.77;100816.25;5091915;28;20204;-78
2022/09/06 05:29:09;;;;;;;7.30;6.80;;;;;;;18.17;64.15;100830.66;5091900;28;20232;-78
2022/09/06 05:31:35;;;;;;;7.10;6.70;;;;;;;18.17;64.11;100815.66;5083439;28;20625;-78
2022/09/06 05:34:02;;;;;;;7.17;6.57;;;;;;;18.17;64.37;100806.88;5092435;28;20629;-78
2022/09/06 05:36:30;;;;;;;7.00;6.40;;;;;;;18.19;64.34;100803.22;5091952;28;20196;-77
2022/09/06 05:38:58;;;;;;;7.03;6.53;;;;;;;18.18;64.07;100793.59;5091894;28;20224;-78
2022/09/06 05:41:25;;;;;;;7.27;6.57;;;;;;;18.19;63.93;100811.16;5091591;28;20741;-78
2022/09/06 05:43:51;;;;;;;6.57;6.17;;;;;;;18.20;63.78;100814.69;5091614;28;20211;-78
2022/09/06 05:46:17;;;;;;;6.93;6.43;;;;;;;18.18;63.69;100812.09;5090675;28;20714;-78
2022/09/06 05:48:44;;;;;;;7.33;6.77;;;;;;;18.18;63.33;100824.47;5081008;28;20220;-78
2022/09/06 05:51:12;;;;;;;7.33;6.93;;;;;;;18.11;63.37;100826.50;5082095;28;20196;-78
2022/09/06 05:53:40;;;;;;;6.47;5.97;;;;;;;18.07;63.83;100819.63;5083793;28;20195;-78
2022/09/06 05:56:09;;;;;;;6.80;6.30;;;;;;;18.11;63.53;100823.00;5081387;28;20204;-78
2022/09/06 05:58:37;;;;;;;7.17;6.67;;;;;;;18.10;63.51;100808.09;5085951;28;20714;-79
2022/09/06 06:01:08;;;;;;;7.10;6.60;;;;;;;18.06;63.77;100808.22;5082244;28;20216;-78
2022/09/06 06:03:34;;;;;;;7.10;6.60;;;;;;;18.03;63.63;100803.06;5083644;28;20274;-78
2022/09/06 06:06:00;;;;;;;6.70;6.20;;;;;;;17.99;64.09;100796.19;5081277;28;20239;-78
2022/09/06 06:08:27;;;;;;;6.60;6.10;;;;;;;17.97;63.89;100805.97;5082620;28;20575;-78
2022/09/06 06:10:58;;;;;;;6.90;6.40;;;;;;;17.98;63.93;100817.41;5082719;28;20196;-79
2022/09/06 06:13:27;;;;;;;6.70;6.30;;;;;;;17.98;64.12;100815.63;5083558;28;20202;-78
2022/09/06 06:15:53;;;;;;;6.87;6.30;;;;;;;18.02;63.96;100816.34;5083284;28;20287;-78
2022/09/06 06:18:19;;;;;;;9.03;6.73;;;;;;;18.00;63.84;100832.25;5081700;28;20715;-78
2022/09/06 06:20:46;;;;;;;6.57;6.10;;;;;;;17.99;63.88;100840.25;5082870;28;20224;-78
2022/09/06 06:23:14;;;;;;;7.10;6.60;;;;;;;17.96;64.25;100837.75;5083041;28;20201;-79
2022/09/06 06:25:40;;;;;;;6.43;5.93;;;;;;;18.01;64.32;100841.88;5081833;28;20246;-78
2022/09/06 06:28:07;;;;;;;6.60;6.10;;;;;;;18.03;64.36;100820.69;5082976;28;20289;-78
2022/09/06 06:30:37;;;;;;;6.60;6.00;;;;;;;18.11;65.00;100808.00;5082247;28;20223;-79
2022/09/06 06:33:04;;;;;;;6.43;5.90;;;;;;;18.19;64.55;100811.16;5083886;28;20203;-77
2022/09/06 06:35:30;;;;;;;6.63;6.13;;;;;;;18.23;63.62;100848.88;5082229;28;20201;-78
2022/09/06 06:37:56;;;;;;;7.23;6.77;;;;;;;18.31;63.68;100869.69;5082255;28;20271;-79
2022/09/06 06:40:23;;;;;;;6.93;6.33;;;;;;;18.35;63.12;100892.41;5083398;28;20609;-79
2022/09/06 06:42:49;;;;;;;6.50;6.00;;;;;;;18.34;63.21;100896.84;5081292;28;20559;-78
2022/09/06 06:45:15;;;;;;;6.60;6.20;;;;;;;18.37;63.17;100888.75;5081208;28;20205;-78
2022/09/06 06:47:43;;;;;;;7.00;6.50;;;;;;;18.36;63.56;100895.00;5081400;28;20715;-78
2022/09/06 06:50:22;;;;;;;6.77;6.27;;;;;;;18.35;63.96;100876.53;5082814;28;20200;-78
2022/09/06 06:52:51;;;;;;;9.37;6.27;;;;;;;18.34;64.03;100862.47;5084111;28;20200;-78
2022/09/06 06:55:17;;;;;;;6.83;6.10;;;;;;;18.40;63.73;100862.19;5081939;28;20196;-78
2022/09/06 06:57:43;;;;;;;6.90;6.40;;;;;;;18.46;63.58;100869.84;5129152;22;20215;-78
2022/09/06 07:00:11;;;;;;;6.13;5.83;;;;;;;18.49;63.04;100883.88;5009292;28;20196;-79
2022/09/06 07:02:37;;;;;;;7.33;6.10;;;;;;;18.51;62.73;100905.81;5007192;28;20236;-77
2022/09/06 07:05:06;;;;;;;6.60;6.20;;;;;;;18.48;62.80;100922.66;5007039;28;20211;-78
2022/09/06 07:07:32;;;;;;;7.40;6.13;;;;;;;18.52;62.62;100918.97;5006661;28;20278;-78
2022/09/06 07:09:59;;;;;;;6.97;6.47;;;;;;;18.54;62.66;100922.38;5004508;28;20203;-77
2022/09/06 07:12:25;;;;;;;6.17;5.67;;;;;;;18.58;62.57;100913.41;5006384;28;20202;-78
2022/09/06 07:14:51;;;;;;;6.43;6.03;;;;;;;18.55;62.92;100918.84;5004871;28;20263;-77
2022/09/06 07:17:17;;;;;;;7.07;6.57;;;;;;;18.57;62.48;100940.78;5003906;28;20199;-77
2022/09/06 07:19:44;;;;;;;6.30;5.83;;;;;;;18.58;62.54;100938.97;5003961;28;20280;-77
2022/09/06 07:22:11;;;;;;;6.00;5.70;;;;;;;18.61;62.22;100926.50;5004607;28;20276;-79
2022/09/06 07:24:38;;;;;;;6.40;6.00;;;;;;;18.66;62.16;100923.63;5006493;28;20199;-78
2022/09/06 07:27:04;;;;;;;6.70;6.20;;;;;;;18.67;61.82;100946.50;5004056;28;20251;-78
2022/09/06 07:29:31;;;;;;;5.90;5.50;;;;;;;18.68;61.80;100963.25;5006236;28;20701;-79
2022/09/06 07:31:58;;;;;;;6.80;6.30;;;;;;;18.61;62.06;100949.41;5007164;28;20207;-78
2022/09/06 07:34:25;;;;;;;6.73;6.13;;;;;;;18.65;61.88;100961.56;5004819;28;20670;-77
2022/09/06 07:36:52;;;;;;;6.70;6.17;;;;;;;18.67;61.84;100954.41;5005648;28;20210;-78
2022/09/06 07:39:19;;;;;;;12.80;6.10;;;;;;;18.71;61.50;100952.50;5006718;28;20282;-77
2022/09/06 07:41:46;;;;;;;6.43;5.83;;;;;;;18.70;61.29;100961.38;5005499;28;20231;-77
2022/09/06 07:44:12;;;;;;;6.13;5.67;;;;;;;18.78;61.09;100967.19;5004663;28;20258;-78
2022/09/06 07:46:38;;;;;;;5.90;5.50;;;;;;;18.81;60.84;100975.88;5004064;28;20681;-77
2022/09/06 07:49:06;;;;;;;6.27;5.77;;;;;;;18.82;60.84;100989.97;5004564;28;20764;-78
2022/09/06 07:51:32;;;;;;;6.30;5.87;;;;;;;18.87;60.33;100997.69;5004404;28;20195;-77
2022/09/06 07:53:59;;;;;;;6.53;5.93;;;;;;;18.91;59.95;101010.72;5005583;28;20245;-77
2022/09/06 07:56:27;;;;;;;6.67;6.27;;;;;;;18.94;59.99;101004.41;5003759;28;20206;-77
2022/09/06 07:58:54;;;;;;;5.83;5.53;;;;;;;18.95;59.98;101006.13;5027670;22;20234;-76
2022/09/06 08:01:29;;;;;;;7.20;6.67;;;;;;;18.95;60.14;101003.47;5021868;28;20246;-78
2022/09/06 08:03:56;;;;;;;6.13;5.60;;;;;;;19.00;60.09;101018.22;5025326;28;20229;-78
2022/09/06 08:06:24;;;;;;;6.10;5.53;;;;;;;19.00;60.41;101005.00;5028141;28;20202;-78
2022/09/06 08:08:51;;;;;;;6.43;5.93;;;;;;;19.06;60.04;101009.16;5026896;28;20214;-78
2022/09/06 08:11:18;;;;;;;6.30;5.90;;;;;;;19.08;59.63;101025.81;5026148;28;20726;-78
2022/09/06 08:13:48;;;;;;;6.70;6.27;;;;;;;19.04;59.39;101027.75;5022221;28;20288;-77
2022/09/06 08:16:15;;;;;;;6.40;5.90;;;;;;;19.03;59.78;101015.44;5024626;28;20195;-78
2022/09/06 08:18:42;;;;;;;6.43;5.93;;;;;;;19.01;60.38;101003.22;5025744;28;20264;-78
2022/09/06 08:21:11;;;;;;;6.60;6.20;;;;;;;19.04;60.14;100997.78;5025165;28;20633;-77
2022/09/06 08:23:38;;;;;;;9.77;6.10;;;;;;;19.10;60.19;100986.06;5024519;28;20642;-78
2022/09/06 08:26:05;;;;;;;6.50;5.87;;;;;;;19.16;60.00;100989.28;5026220;28;20195;-78
2022/09/06 08:28:31;;;;;;;7.17;6.03;;;;;;;19.20;60.04;100987.34;5023880;28;20217;-77
2022/09/06 08:31:07;;;;;;;6.60;6.20;;;;;;;19.20;60.07;100998.78;5023052;28;20256;-78
2022/09/06 08:33:33;;;;;;;7.03;6.43;;;;;;;19.19;60.12;100991.78;5023767;28;20276;-78
2022/09/06 08:36:00;;;;;;;7.27;6.67;;;;;;;19.28;60.31;100979.06;5023437;28;20214;-77
2022/09/06 08:38:27;;;;;;;7.50;6.90;;;;;;;19.37;60.61;100984.78;5020667;28;20203;-78
2022/09/06 08:40:55;;;;;;;7.27;6.77;;;;;;;19.47;60.39;100987.88;5024897;28;20734;-78
2022/09/06 08:43:22;;;;;;;7.40;6.63;;;;;;;19.53;60.68;100971.69;5023536;28;20334;-78
2022/09/06 08:45:54;;;;;;;7.30;6.10;;;;;;;19.60;59.59;100981.06;5025480;28;20206;-78
2022/09/06 08:48:23;;;;;;;6.33;5.67;;;;;;;19.64;59.78;100997.63;5025783;28;20210;-77
2022/09/06 08:51:00;;;;;;;8.93;6.67;;;;;;;19.67;59.12;101008.09;5024456;28;20203;-77
2022/09/06 08:53:26;;;;;;;7.47;6.77;;;;;;;19.68;58.68;101011.59;5020755;28;20566;-78
2022/09/06 08:55:59;;;;;;;11.30;6.70;;;;;;;19.69;58.77;101027.44;5024884;28;20208;-78
2022/09/06 08:58:39;;;;;;;7.33;6.63;;;;;;;19.73;58.66;101012.28;5020809;28;20264;-78
2022/09/06 09:01:11;;;;;;;7.60;6.90;;;;;;;19.82;59.83;100985.31;5021250;28;20206;-78
2022/09/06 09:03:42;;;;;;;6.40;5.90;;;;;;;19.90;59.25;100977.00;5024235;28;20226;-78
2022/09/06 09:06:10;;;;;;;6.60;6.10;;;;;;;19.94;58.85;100990.03;5022164;28;20305;-78
2022/09/06 09:08:46;;;;;;;6.53;6.10;;;;;;;19.98;58.27;101023.41;5025013;28;20205;-78
2022/09/06 09:11:17;;;;;;;6.57;6.10;;;;;;;20.00;58.37;101034.78;5025299;28;20613;-78
2022/09/06 09:13:53;;;;;;;8.37;6.33;;;;;;;20.08;58.12;101047.69;5025661;28;20214;-79
2022/09/06 09:16:20;;;;;;;6.83;6.13;;;;;;;20.16;58.40;101047.31;5026082;28;20257;-81
2022/09/06 09:18:52;;;;;;;6.40;6.00;;;;;;;20.22;58.29;101047.00;5020201;28;20580;-78
2022/09/06 09:21:21;;;;;;;6.10;5.70;;;;;;;20.30;58.41;101028.06;5021729;28;20199;-77
2022/09/06 09:23:53;;;;;;;7.03;6.37;;;;;;;20.34;58.34;101019.88;5019841;28;20233;-78
2022/09/06 09:26:21;;;;;;;6.47;6.00;;;;;;;20.36;57.74;101015.34;5021801;28;20267;-78
2022/09/06 09:29:06;;;;;;;6.40;5.80;;;;;;;20.49;58.31;101030.63;5018492;28;20206;-78
2022/09/06 09:31:41;;;;;;;7.07;6.37;;;;;;;20.60;57.70;101020.34;5018708;28;20205;-78
2022/09/06 09:34:13;;;;;;;7.47;6.17;;;;;;;20.74;57.33;101035.56;5020415;28;20285;-77
2022/09/06 09:36:40;;;;;;;6.10;5.70;;;;;;;20.80;57.02;101043.19;5023988;28;20252;-79
2022/09/06 09:39:10;;;;;;;6.23;5.73;;;;;;;20.83;56.90;101054.53;5020786;28;20256;-79
2022/09/06 09:41:40;;;;;;;6.93;6.33;;;;;;;20.82;57.01;101041.31;5023127;28;20222;-79
2022/09/06 09:44:10;;;;;;;7.33;6.83;;;;;;;20.83;56.82;101032.41;5021376;28;20281;-79
2022/09/06 09:46:38;;;;;;;6.37;5.87;;;;;;;20.89;56.29;101045.38;5021101;28;20206;-78
2022/09/06 09:49:07;;;;;;;6.43;5.90;;;;;;;20.93;56.09;101056.66;5019489;28;20237;-78
2022/09/06 09:51:37;;;;;;;5.73;5.30;;;;;;;21.02;55.73;101070.31;5025377;28;20249;-78
2022/09/06 09:54:06;;;;;;;5.57;5.17;;;;;;;21.13;55.27;101067.13;5024387;28;20219;-77
2022/09/06 09:56:40;;;;;;;5.73;5.23;;;;;;;21.27;55.06;101092.06;5025801;28;20194;-78
2022/09/06 09:59:17;;;;;;;6.33;5.63;;;;;;;21.35;55.03;101071.28;5019111;28;20214;-78
2022/09/06 10:01:43;;;;;;;5.93;5.37;;;;;;;21.46;53.77;101107.91;5022641;28;20217;-79
2022/09/06 10:04:17;;;;;;;6.13;5.57;;;;;;;21.56;53.77;101133.03;5023921;28;20245;-79
2022/09/06 10:06:45;;;;;;;9.33;4.50;;;;;;;21.61;53.84;101139.81;5021740;28;20206;-78
2022/09/06 10:09:21;;;;;;;6.43;5.93;;;;;;;21.71;53.15;101157.94;5024062;28;20198;-77
2022/09/06 10:11:57;;;;;;;6.80;4.93;;;;;;;21.78;53.28;101161.94;5022941;28;20201;-78
2022/09/06 10:14:28;;;;;;;5.90;5.30;;;;;;;21.87;53.16;101161.47;5021119;28;20264;-78
2022/09/06 10:16:55;;;;;;;6.73;5.17;;;;;;;21.94;52.73;101167.28;5020273;28;20664;-77
2022/09/06 10:19:24;;;;;;;5.90;5.17;;;;;;;21.97;52.20;101165.31;5023516;28;20610;-78
2022/09/06 10:21:59;;;;;;;5.80;5.17;;;;;;;22.00;52.20;101180.25;5024431;28;20222;-81
2022/09/06 10:24:31;;;;;;;6.13;5.53;;;;;;;21.96;52.69;101176.91;5022653;28;20256;-78
2022/09/06 10:27:00;;;;;;;6.97;5.67;;;;;;;21.97;52.17;101185.75;5022542;28;20210;-78
2022/09/06 10:29:38;;;;;;;6.20;5.67;;;;;;;22.01;53.11;101168.69;5017624;28;20269;-77
2022/09/06 10:32:23;;;;;;;5.57;5.07;;;;;;;22.08;52.86;101148.78;5026396;28;20199;-78
2022/09/06 10:35:06;;;;;;;5.63;5.13;;;;;;;22.11;52.55;101151.25;5027259;28;20226;-77
2022/09/06 10:37:48;;;;;;;5.60;5.30;;;;;;;22.14;52.30;101161.75;5028243;28;20241;-78
2022/09/06 10:40:24;;;;;;;6.27;5.70;;;;;;;22.13;52.06;101169.81;5029254;28;20195;-78
2022/09/06 10:42:52;;;;;;;6.23;5.03;;;;;;;22.11;51.96;101167.22;5027296;28;20245;-78
2022/09/06 10:45:28;;;;;;;5.67;5.27;;;;;;;22.15;52.05;101160.78;5028104;28;20220;-77
2022/09/06 10:47:59;;;;;;;6.30;5.70;;;;;;;22.16;52.41;101162.50;5028123;28;20303;-77
2022/09/06 10:50:33;;;;;;;6.07;5.57;;;;;;;22.16;52.45;101154.53;5029638;28;20643;-77
2022/09/06 10:53:10;;;;;;;11.30;5.27;;;;;;;22.26;52.72;101146.06;5030011;28;20202;-77
2022/09/06 10:55:40;;;;;;;5.17;4.70;;;;;;;22.48;53.17;101103.16;5028176;28;20203;-77
2022/09/06 10:58:09;;;;;;;5.87;5.47;;;;;;;22.70;51.38;101151.50;5025548;28;20210;-78
2022/09/06 11:00:42;;;;;;;5.80;4.90;;;;;;;22.87;51.36;101163.78;5022984;28;20485;-77
2022/09/06 11:03:16;;;;;;;5.50;5.00;;;;;;;23.06;50.76;101192.06;5026516;28;20242;-78
2022/09/06 11:05:47;;;;;;;5.70;5.20;;;;;;;23.17;50.19;101202.91;5026826;28;20202;-77
2022/09/06 11:08:20;;;;;;;9.23;5.07;;;;;;;23.20;50.04;101222.22;5028481;28;20663;-79
2022/09/06 11:10:50;;;;;;;5.60;5.07;;;;;;;23.25;49.61;101237.06;5029384;28;20671;-79
2022/09/06 11:13:18;;;;;;;5.60;5.20;;;;;;;23.31;49.86;101234.03;5029149;28;20274;-79
2022/09/06 11:15:51;;;;;;;6.60;5.10;;;;;;;23.44;49.48;101231.50;5030146;28;20637;-76
2022/09/06 11:18:22;;;;;;;5.27;4.77;;;;;;;23.62;49.56;101242.88;5029755;28;20199;-77
2022/09/06 11:21:00;;;;;;;8.30;5.40;;;;;;;23.81;48.96;101247.97;5024363;28;20209;-77
2022/09/06 11:23:40;;;;;;;5.83;5.23;;;;;;;24.03;48.65;101248.34;5023217;28;20228;-77
2022/09/06 11:26:29;;;;;;;5.90;5.30;;;;;;;24.21;47.67;101274.81;5022637;28;20199;-77
2022/09/06 11:28:58;;;;;;;5.43;5.03;;;;;;;24.38;47.39;101296.81;5021198;28;20256;-77
2022/09/06 11:31:26;;;;;;;5.90;5.40;;;;;;;24.88;46.57;101313.22;5023305;28;20205;-77
2022/09/06 11:34:12;;;;;;;6.63;5.10;;;;;;;25.90;44.05;101387.56;5028164;28;20249;-77